MapTableWeb Map

Choose a state:
Locations above flood stage
(68 streamgages are currently reporting water levels above the National Weather Service defined flood stage)
USGS
station
ID
USGS station name NWS
flood
stage
(ft)
Most recent
stage
(ft)
Most recent
flow
(cfs)
Historical
peaks
(cfs)
Most recent
local
date/time
NWS
station
ID
06674500NORTH PLATTE RIVER AT WYOMING-NEBRASKA STATE LINE 5.5 6.37 7,670 17,900 2016-05-31 18:45:00 HENN1
06660000LARAMIE RIVER AT LARAMIE, WY 8 8.22 1,190 3,250 2016-05-31 18:00:00  
06670500LARAMIE RIVER NEAR FORT LARAMIE, WY 7 7.21 2,980 6,260 2016-05-31 18:00:00 FLAW4
07072500Black River at Black Rock, AR 14 22.62 36,700 190,000 2016-05-31 19:00:00 BKRA4
07349650(COE) Byu Bodcau Lake nr Shreveport, LA (Landside) 172 181.76

 

2016-05-31 19:00:00  
08030500Sabine Rv nr Ruliff, TX 24 24.28 17,700 121,000 2016-05-31 19:45:00 DWYT2
08177520Guadalupe Rv nr Bloomington, TX 20 25.26 4,660   2016-05-31 19:00:00 DUPT2
07069000Black River at Pocahontas, AR 17 21.20 27,200 86,600 2016-05-31 19:00:00 POCA4
07074850White River near Augusta, AR 26 30.27 37,700 262,000 2016-05-31 19:00:00 AUGA4
08066000Trinity Rv at Riverside, TX 133.5 135.30

 

121,000 2016-05-31 19:30:00 RVRT2
06895500Missouri River at Waverly, MO 20 24.31 180,000 633,000 2016-05-31 19:30:00 WVYM7
08111500Brazos Rv nr Hempstead, TX 50 50.75 98,200 143,000 2016-05-31 19:45:00 HPDT2
06813500Missouri River at Rulo, NE 17 17.59 89,600 358,000 2016-05-31 19:30:00 RULN1
06884700BIG BLUE R AT BLUE RAPIDS, KS 26 27.52

 

  2016-05-31 19:15:00 BLRK1
07182390NEOSHO R AT NEOSHO RAPIDS, KS 22 23.22 18,700 25,700 2016-05-31 19:30:00 NEOK1
08099100Leon Rv nr De Leon, TX 12 16.82 11,700 24,500 2016-05-31 17:30:00 DLLT2
06876700SALT C NR ADA, KS 18 19.36 1,670 16,000 2016-05-31 19:45:00 ADAK1
08110500Navasota Rv nr Easterly, TX 19 20.75 6,920 90,000 2016-05-31 19:00:00 EAST2
08041780Neches Rv Saltwater Barrier at Beaumont, TX 4 7.38 52,000 95,800 2016-05-31 19:15:00 NSBT2
08066250Trinity Rv nr Goodrich, TX 36 37.55 65,500 125,000 2016-05-31 19:45:00 GRIT2
08067000Trinity Rv at Liberty, TX 26 29.78 77,900 135,000 2016-05-31 19:15:00 LBYT2
08072050San Jacinto Rv nr Sheldon, TX 10 13.08

 

2016-05-31 19:15:00 SHLT2
08040600Neches Rv nr Town Bluff, TX 68 70.42 22,100 120,000 2016-05-31 19:30:00 TBFT2
06906500Missouri River at Glasgow, MO 25 28.10 211,000 322,000 2016-05-31 19:30:00 GLZM7
08110800Navasota Rv at Old Spanish Rd nr Bryan, TX 15 16.27 7,680 54,300 2016-05-31 20:00:00 NGET2
06909000Missouri River at Boonville, MO 21 25.88 256,000 755,000 2016-05-31 19:30:00 BOZM7
08032000Neches Rv nr Neches, TX 12 12.38 1,550 45,500 2016-05-31 19:30:00 NCST2
08041700Pine Island Bayou nr Sour Lake, TX 25 28.33 3,800 48,800 2016-05-31 19:45:00 SOLT2
06934500Missouri River at Hermann, MO 21 25.35 262,000 750,000 2016-05-31 19:30:00 HRZM7
06915800MARAIS DES CYGNES R AT LA CYGNE, KS 25 26.34 16,000 131,000 2016-05-31 20:00:00 LCGK1
07143310COW C NR HUTCHINSON, KS 9.5 10.67

 

  2016-05-31 19:15:00 HTCK1
08116650Brazos Rv nr Rosharon, TX 43 50.60 68,300 84,400 2016-05-31 20:00:00 ROST2
06910450Missouri River at Jefferson City, MO 23 25.74 263,000 293,000 2016-05-31 19:45:00 JFFM7
08114000Brazos Rv at Richmond, TX 45 54.16 99,400 123,000 2016-05-31 19:15:00 RMOT2
08041000Neches Rv at Evadale, TX 17 18.16 25,700 125,000 2016-05-31 19:00:00 EVDT2
06935450Missouri River at Washington, MO 20 21.62 273,000 342,000 2016-05-31 19:45:00 WHGM7
08033500Neches Rv nr Rockland, TX 26 29.29 27,800 62,000 2016-05-31 19:00:00 ROKT2
08057000Trinity Rv at Dallas, TX 30 33.04 11,700 184,000 2016-05-31 19:00:00 DALT2
08162000Colorado Rv at Wharton, TX 39 46.87 61,200 159,000 2016-05-31 19:15:00 WHAT2
06935965Missouri River at St. Charles, MO 25 26.44 255,000 409,000 2016-05-31 20:00:00 SCLM7
08041500Village Ck nr Kountze, TX 17 17.61 9,440 67,200 2016-05-31 19:30:00 KOUT2
06605850Little Sioux River at Linn Grove, IA 18 18.21 3,350 22,500 2016-05-31 20:00:00 LNNI4
06918250Osage River at Taberville, MO 21 22.34 17,100 42,100 2016-05-31 19:45:00 TBVM7
08044500W Fk Trinity Rv nr Boyd, TX 16 17.45 3,440 60,400 2016-05-31 19:15:00 BOYT2
02202500OGEECHEE RIVER NEAR EDEN, GA 11 12.46 8,030 78,000 2016-05-31 20:15:00 EDEG1
06604440Little Sioux River at 300th St near Spencer, IA 10 10.32 1,680 6,020 2016-05-31 19:15:00 LSSI4
08179500Medina Lk nr San Antonio, TX 1064.2 1065.16

 

  2016-05-31 19:00:00 MDLT2
08176500Guadalupe Rv at Victoria, TX 21 21.27 9,320 466,000 2016-05-31 19:15:00 VICT2
08085500Clear Fk Brazos Rv at Ft Griffin, TX 25 31.12 8,240 149,000 2016-05-31 19:00:00 ABYT2
08041749Pine Island Bayou abv BI Pump Plant, Beaumont, TX 11 11.70 7,610 22,700 2016-05-31 19:45:00 BIPT2
08090800Brazos Rv nr Dennis, TX 21 23.18 35,800 96,600 2016-05-31 19:30:00 DNNT2
08205500Frio Rv nr Derby, TX 6 7.63 4,080 230,000 2016-05-31 19:30:00 DBYT2
05056500DEVILS LAKE NR DEVILS LAKE, ND 0.1 50.00

 

2016-05-31 19:00:00 DCBN8
08062700Trinity Rv at Trinidad, TX 33 34.14 17,400 94,500 2016-05-31 20:00:00 TDDT2
08033000Neches Rv nr Diboll, TX 12 14.68 10,200 110,000 2016-05-31 19:15:00 DIBT2
06818000Missouri River at St. Joseph, MO 17 17.37 96,100 397,000 2016-05-31 19:30:00 SJSM7
07020500Mississippi River at Chester, IL 27 27.18 425,000 1,060,000 2016-05-31 20:00:00 CHSI2
08089000Brazos Rv nr Palo Pinto, TX 16 19.73 34,400 95,600 2016-05-31 19:15:00 PLOT2
08168500Guadalupe Rv abv Comal Rv at New Braunfels, TX 7 9.75 10,300 101,000 2016-05-31 20:00:00 NBRT2
08169500Guadalupe Rv at New Braunfels, TX 13 14.19

 

152,000 2016-05-31 19:30:00 GBCT2
08055500Elm Fk Trinity Rv nr Carrollton, TX 8 8.65 7,530 145,000 2016-05-31 19:15:00 CART2
08151500Llano Rv at Llano, TX 10 12.00 26,100 380,000 2016-05-31 20:00:00 LLAT2
08158700Onion Ck nr Driftwood, TX 5.5 6.63 1,670 15,800 2016-05-31 20:00:00 DRWT2
08057200White Rk Ck at Greenville Ave, Dallas, TX 84 88.48 11,300 39,200 2016-05-31 19:15:00 DWRT2
08053500Denton Ck nr Justin, TX 10 11.47 2,380 34,700 2016-05-31 20:00:00 DCJT2
08153500Pedernales Rv nr Johnson City, TX 14 14.82 14,900 441,000 2016-05-31 20:00:00 JOCT2
08154500LCRA Lk Travis nr Austin, TX 685 685.02

 

  2016-05-31 20:00:00  
08178880Medina Rv at Bandera, TX 13 13.59 6,490 159,000 2016-05-31 19:45:00 BDAT2